Decoded Metar for SASJ (JUJUY in ARGENTINA) (IATA:JUJ) | Meteo·Mobile Aviation Weather
aviador You're here:

SASJ Decoded Metar

JUJUY in ARGENTINA
Report Time2019-02-20 01:00:00
UTC Time2019-02-20 01:47:37
Flight Rules vfr VFR
Wind320° at 04 kt
W.Decomp.*RWY 34: 3.9 kt HW 1 kt LCW
W.Rank320° ranks 1
Current wind is below 320° avg. (5.1)
Visibility9999 m
Phenomena:N/A
Clouds:Few 034 Hf
Expected CloudBase > 1,200 ft AGL from Temp-Dew spread
CeilingNone
Temp24°C (ISA +17)
Dew Point21°C (83% RH)
QNH1013 hPa
Density Alt6,089 ft
Elevation3,829 ft
Report Wrong Elevation
Raw Report
SASJ 200100Z 32004KT 9999 FEW034 24/21 Q1013=

Extra information for SASJ:More info

Metar Taf Metar & Taf Last 4 Metars F.Rules Stats Wind Profile Meteogram Temp Stats Airport Information Weather charts Add Link Nearby VenuesMetar ALERT Operation Metar Decoded Social comments